Bradford, Iowa
Current Conditions -  °F | °C
As of 6:35 AM on Sunday 23 Nov 2014 (Local Time) from KIFA Reporting Station
Haze Haze  
Wind Chill: 50°   Ceiling: 400
Heat Index: 50°   Visibility: 5mi
Dew Point: 49°   Wind: 14mph
Humidity: 95%   Direction: 170°S
Pressure: 29.53"   Gusts: NA
Location:  42.63°N, 93.25°W
Report Text: KIFA 231235Z AUTO 17012KT 5SM BR OVC004 10/09 A2953 RMK AO2 T01000093
Loading
Personal Weather Stations






























Interactive Weather Map New forecast layout! Learn more

10-Day Weather Forecast

Advertisements
Track Severe Weather on mobile